createdAt,value
2023-01-21T00:00:12.427Z,1.4
2023-01-21T00:05:20.131Z,1.4
2023-01-21T00:10:42.865Z,1.4
2023-01-21T00:15:34.106Z,1.4
2023-01-21T00:20:56.475Z,1.4
2023-01-21T00:26:19.030Z,1.4
2023-01-21T00:31:43.712Z,1.4
2023-01-21T00:37:06.462Z,1.4
2023-01-21T00:42:28.674Z,1.4
2023-01-21T00:47:51.220Z,1.4
2023-01-21T00:52:43.089Z,1.4
2023-01-21T00:57:51.140Z,1.4
2023-01-21T01:02:58.838Z,1.4
2023-01-21T01:08:21.613Z,1.4
2023-01-21T01:13:44.913Z,1.4
2023-01-21T01:18:51.892Z,1.4
2023-01-21T01:24:14.684Z,1.4
2023-01-21T01:29:38.006Z,1.4
2023-01-21T01:35:00.678Z,1.4
2023-01-21T01:40:08.075Z,1.5
2023-01-21T01:45:30.600Z,1.5
2023-01-21T01:50:38.314Z,1.4
2023-01-21T01:56:01.190Z,1.5
2023-01-21T02:01:24.130Z,1.4
2023-01-21T02:06:47.159Z,1.5
2023-01-21T02:12:09.325Z,1.4
2023-01-21T02:17:31.952Z,1.5
2023-01-21T02:22:54.486Z,1.5
2023-01-21T02:28:05.307Z,1.4
2023-01-21T02:33:29.192Z,1.5
2023-01-21T02:38:35.759Z,1.4
2023-01-21T02:43:58.727Z,1.4
2023-01-21T02:49:22.075Z,1.4
2023-01-21T02:54:45.266Z,1.4
2023-01-21T02:59:37.185Z,1.4
2023-01-21T03:04:59.852Z,1.4
2023-01-21T03:10:21.949Z,1.4
2023-01-21T03:15:29.211Z,1.3
2023-01-21T03:20:52.946Z,1.3
2023-01-21T03:26:14.654Z,1.3
2023-01-21T03:31:37.761Z,1.2
2023-01-21T03:37:00.999Z,1.1
2023-01-21T03:42:07.631Z,1
2023-01-21T03:47:14.888Z,0.9
2023-01-21T03:52:22.397Z,0.8
2023-01-21T03:57:44.688Z,0.6
2023-01-21T04:02:52.116Z,0.5
2023-01-21T04:07:59.654Z,0.4
2023-01-21T04:13:22.339Z,0.3
2023-01-21T04:18:33.514Z,0.2
2023-01-21T04:23:41.521Z,0.1
2023-01-21T04:29:06.919Z,0
2023-01-21T04:34:29.002Z,-0.1
2023-01-21T04:39:51.541Z,-0.1
2023-01-21T04:45:14.460Z,-0.1
2023-01-21T04:50:36.757Z,-0.1
2023-01-21T04:56:00.501Z,-0.1
2023-01-21T05:01:07.863Z,-0.1
2023-01-21T05:06:14.970Z,-0.1
2023-01-21T05:11:38.790Z,-0.1
2023-01-21T05:17:01.407Z,-0.1
2023-01-21T05:22:08.799Z,-0.2
2023-01-21T05:27:31.593Z,-0.2
2023-01-21T05:32:54.834Z,-0.3
2023-01-21T05:37:46.500Z,-0.3
2023-01-21T05:43:09.907Z,-0.3
2023-01-21T05:48:34.429Z,-0.4
2023-01-21T05:53:57.495Z,-0.5
2023-01-21T05:59:19.402Z,-0.6
2023-01-21T06:04:26.360Z,-0.6
2023-01-21T06:09:49.126Z,-0.7
2023-01-21T06:15:12.163Z,-0.7
2023-01-21T06:20:19.691Z,-0.7
2023-01-21T06:25:42.634Z,-0.5
2023-01-21T06:30:50.244Z,-0.3
2023-01-21T06:35:58.665Z,0.3
2023-01-21T06:41:21.433Z,1.3
2023-01-21T06:46:48.968Z,6
2023-01-21T06:52:03.137Z,11.5
2023-01-21T06:57:26.150Z,16.1
2023-01-21T07:02:48.648Z,19.6
2023-01-21T07:07:56.385Z,22.6
2023-01-21T07:13:03.985Z,26.4
2023-01-21T07:18:27.916Z,30.8
2023-01-21T07:23:34.876Z,34.2
2023-01-21T07:28:59.373Z,37.5
2023-01-21T07:34:24.017Z,40.8
2023-01-21T07:39:46.047Z,42.6
2023-01-21T07:45:08.276Z,44.8
2023-01-21T07:50:33.580Z,48.3
2023-01-21T07:55:56.086Z,52
2023-01-21T08:01:18.664Z,56.2
2023-01-21T08:06:41.941Z,51.1
2023-01-21T08:12:04.215Z,39.3
2023-01-21T08:17:27.364Z,40.8
2023-01-21T08:22:50.027Z,48.3
2023-01-21T08:28:12.639Z,56.1
2023-01-21T08:33:35.462Z,53.1
2023-01-21T08:38:58.656Z,47.4
2023-01-21T08:44:21.132Z,47.5
2023-01-21T08:49:44.296Z,49.3
2023-01-21T08:54:52.056Z,47.8
2023-01-21T09:00:14.611Z,50.1
2023-01-21T09:05:22.707Z,46.5
2023-01-21T09:10:45.411Z,46.9
2023-01-21T09:16:08.528Z,45.8
2023-01-21T09:21:31.724Z,43.7
2023-01-21T09:26:54.349Z,46.1
2023-01-21T09:32:17.778Z,52.6
2023-01-21T09:36:56.820Z,60.7
2023-01-21T09:42:19.838Z,56.3
2023-01-21T09:47:43.129Z,54.3
2023-01-21T09:53:05.865Z,49.8
2023-01-21T09:58:29.093Z,46.1
2023-01-21T10:03:53.669Z,52.8
2023-01-21T10:09:16.924Z,62.3
2023-01-21T10:14:39.928Z,60.9
2023-01-21T10:20:02.912Z,59
2023-01-21T10:25:27.979Z,56.6
2023-01-21T10:30:51.217Z,49.7
2023-01-21T10:35:43.196Z,54
2023-01-21T10:41:07.982Z,61.7
2023-01-21T10:46:32.039Z,60.9
2023-01-21T10:51:56.648Z,58.9
2023-01-21T10:57:19.970Z,59.6
2023-01-21T11:02:44.589Z,61.4
2023-01-21T11:07:52.114Z,61.9
2023-01-21T11:13:15.117Z,56.9
2023-01-21T11:18:38.886Z,60.1
2023-01-21T11:24:03.997Z,58.3
2023-01-21T11:34:27.318Z,58.1
2023-01-21T11:39:49.918Z,56.9
2023-01-21T11:45:12.998Z,50.8
2023-01-21T11:50:36.771Z,48.3
2023-01-21T11:55:59.462Z,46.9
2023-01-21T12:01:21.809Z,44.3
2023-01-21T12:06:45.106Z,41.9
2023-01-21T12:12:07.702Z,40.1
2023-01-21T12:17:32.550Z,38.3
2023-01-21T12:22:56.001Z,36.9
2023-01-21T12:28:02.860Z,37.5
2023-01-21T12:33:26.444Z,40
2023-01-21T12:38:49.290Z,41.4
2023-01-21T12:44:12.260Z,40.4
2023-01-21T12:49:36.307Z,39.3
2023-01-21T12:54:59.620Z,37.9
2023-01-21T13:00:23.819Z,35.9
2023-01-21T13:05:46.992Z,34.2
2023-01-21T13:11:13.226Z,32.3
2023-01-21T13:16:20.504Z,30.3
2023-01-21T13:21:28.549Z,28.4
2023-01-21T13:26:51.438Z,26.3
2023-01-21T13:32:16.019Z,24.3
2023-01-21T13:37:38.616Z,22.7
2023-01-21T13:43:01.546Z,21.5
2023-01-21T13:48:24.630Z,20.9
2023-01-21T13:53:47.174Z,20.8
2023-01-21T13:59:09.766Z,20.4
2023-01-21T14:04:19.854Z,19.9
2023-01-21T14:09:41.892Z,19.2
2023-01-21T14:15:05.032Z,18.5
2023-01-21T14:20:12.455Z,17.8
2023-01-21T14:25:34.853Z,17.1
2023-01-21T14:30:59.266Z,16.4
2023-01-21T14:36:22.346Z,16
2023-01-21T14:41:45.838Z,15.6
2023-01-21T14:47:10.976Z,15.1
2023-01-21T14:52:33.969Z,14.6
2023-01-21T14:58:08.859Z,14.1
2023-01-21T15:03:33.416Z,13.7
2023-01-21T15:08:59.142Z,13.3
2023-01-21T15:14:21.773Z,12.9
2023-01-21T15:19:46.690Z,12.5
2023-01-21T15:25:11.962Z,12.1
2023-01-21T15:30:34.186Z,11.7
2023-01-21T15:36:06.848Z,11.3
2023-01-21T15:41:29.260Z,10.9
2023-01-21T15:46:53.265Z,10.6
2023-01-21T15:52:26.085Z,10.3
2023-01-21T15:57:48.756Z,9.9
2023-01-21T16:03:14.344Z,9.7
2023-01-21T16:08:37.318Z,9.4
2023-01-21T16:14:00.275Z,9.2
2023-01-21T16:19:23.930Z,8.9
2023-01-21T16:24:49.098Z,8.8
2023-01-21T16:29:43.820Z,8.6
2023-01-21T16:34:52.669Z,8.5
2023-01-21T16:40:16.092Z,8.4
2023-01-21T16:45:37.930Z,8.3
2023-01-21T16:50:45.477Z,8.2
2023-01-21T16:56:09.405Z,8.1
2023-01-21T17:01:32.978Z,7.9
2023-01-21T17:06:56.044Z,7.8
2023-01-21T17:12:04.060Z,7.8
2023-01-21T17:17:27.481Z,7.7
2023-01-21T17:22:52.468Z,7.6
2023-01-21T17:28:16.385Z,7.6
2023-01-21T17:33:25.011Z,7.5
2023-01-21T17:38:35.010Z,7.4
2023-01-21T17:43:59.302Z,7.4
2023-01-21T17:49:46.291Z,7.3
2023-01-21T17:55:13.900Z,7.3
2023-01-21T18:00:41.206Z,7.1
2023-01-21T18:05:54.892Z,7.1
2023-01-21T18:11:07.834Z,7.1
2023-01-21T18:16:39.262Z,7
2023-01-21T18:22:06.003Z,6.9
2023-01-21T18:27:32.121Z,6.9
2023-01-21T18:32:59.630Z,6.9
2023-01-21T18:38:11.713Z,6.8
2023-01-21T18:43:22.312Z,6.8
2023-01-21T18:48:50.028Z,6.8
2023-01-21T18:54:15.347Z,6.7
2023-01-21T18:59:40.730Z,6.6
2023-01-21T19:05:09.401Z,6.6
2023-01-21T19:10:37.356Z,6.4
2023-01-21T19:16:06.129Z,6.3
2023-01-21T19:21:38.944Z,6.2
2023-01-21T19:27:10.263Z,6
2023-01-21T19:32:42.779Z,5.8
2023-01-21T19:38:14.699Z,5.7
2023-01-21T19:43:40.621Z,5.6
2023-01-21T19:49:14.026Z,5.5
2023-01-21T19:54:30.158Z,5.4
2023-01-21T20:00:04.134Z,5.4
2023-01-21T20:05:47.089Z,5.4
2023-01-21T20:11:01.523Z,5.4
2023-01-21T20:16:31.390Z,5.4
2023-01-21T20:22:16.205Z,5.3
2023-01-21T20:27:45.564Z,5.3
2023-01-21T20:33:29.691Z,5.3
2023-01-21T20:38:54.414Z,5.3
2023-01-21T20:44:18.585Z,5.4
2023-01-21T20:49:40.026Z,5.3
2023-01-21T20:55:03.761Z,5.4
2023-01-21T21:00:29.812Z,5.3
2023-01-21T21:05:41.784Z,5.3
2023-01-21T21:11:08.020Z,5.3
2023-01-21T21:16:16.145Z,5.4
2023-01-21T21:21:40.494Z,5.4
2023-01-21T21:26:48.544Z,5.3
2023-01-21T21:32:12.633Z,5.3
2023-01-21T21:37:36.306Z,5.3
2023-01-21T21:42:59.338Z,5.3
2023-01-21T21:48:22.858Z,5.3
2023-01-21T21:53:30.991Z,5.2
2023-01-21T21:58:53.504Z,5.2
2023-01-21T22:04:16.834Z,5.1
2023-01-21T22:09:39.380Z,5
2023-01-21T22:15:02.160Z,4.9
2023-01-21T22:20:27.977Z,4.8
2023-01-21T22:25:50.339Z,4.6
2023-01-21T22:31:13.937Z,4.4
2023-01-21T22:36:37.375Z,4.3
2023-01-21T22:42:00.121Z,4.1
2023-01-21T22:47:24.063Z,4.1
2023-01-21T22:52:31.020Z,4.1
2023-01-21T22:57:45.710Z,4
2023-01-21T23:03:08.102Z,4.1
2023-01-21T23:08:31.181Z,4.1
2023-01-21T23:13:55.498Z,4.1
2023-01-21T23:18:47.294Z,4.1
2023-01-21T23:24:10.376Z,4.1
2023-01-21T23:29:33.211Z,4.3
2023-01-21T23:34:25.619Z,4.3
2023-01-21T23:39:51.009Z,4.4
2023-01-21T23:45:12.975Z,4.4
2023-01-21T23:50:36.455Z,4.4
2023-01-21T23:55:59.043Z,4.6
